createdAt,value
2019-05-12T00:02:05.085Z,21.74
2019-05-12T00:04:38.592Z,21.74
2019-05-12T00:07:11.914Z,21.71
2019-05-12T00:09:47.435Z,21.88
2019-05-12T00:12:20.585Z,21.80
2019-05-12T00:14:53.954Z,21.74
2019-05-12T00:17:28.412Z,21.72
2019-05-12T00:20:01.959Z,21.70
2019-05-12T00:22:36.152Z,21.68
2019-05-12T00:25:12.131Z,21.65
2019-05-12T00:27:45.472Z,21.63
2019-05-12T00:30:18.851Z,21.62
2019-05-12T00:32:52.229Z,21.60
2019-05-12T00:35:25.831Z,21.57
2019-05-12T00:38:00.835Z,21.73
2019-05-12T00:40:38.831Z,21.73
2019-05-12T00:43:11.250Z,21.62
2019-05-12T00:45:44.580Z,21.59
2019-05-12T00:48:18.066Z,21.56
2019-05-12T00:50:51.562Z,21.54
2019-05-12T00:53:36.149Z,21.56
2019-05-12T00:56:01.642Z,21.50
2019-05-12T00:58:34.949Z,21.49
2019-05-12T01:01:08.330Z,21.48
2019-05-12T01:03:41.612Z,21.49
2019-05-12T01:06:14.953Z,21.49
2019-05-12T01:08:48.429Z,21.47
2019-05-12T01:11:21.865Z,21.46
2019-05-12T01:13:55.180Z,21.48
2019-05-12T01:16:29.013Z,21.44
2019-05-12T01:19:02.418Z,21.42
2019-05-12T01:21:37.664Z,21.41
2019-05-12T01:24:10.758Z,21.40
2019-05-12T01:26:44.309Z,21.38
2019-05-12T01:29:19.266Z,21.33
2019-05-12T01:31:52.582Z,21.35
2019-05-12T01:34:27.723Z,21.46
2019-05-12T01:37:00.930Z,21.40
2019-05-12T01:39:34.236Z,21.35
2019-05-12T01:42:09.104Z,21.31
2019-05-12T01:44:42.464Z,21.33
2019-05-12T01:47:18.575Z,21.29
2019-05-12T01:49:51.230Z,21.37
2019-05-12T01:52:24.560Z,21.29
2019-05-12T01:54:59.007Z,21.25
2019-05-12T01:57:32.588Z,21.26
2019-05-12T02:00:10.116Z,21.40
2019-05-12T02:02:43.459Z,21.28
2019-05-12T02:05:18.348Z,21.44
2019-05-12T02:07:51.897Z,21.31
2019-05-12T02:10:28.579Z,21.47
2019-05-12T02:13:01.853Z,21.31
2019-05-12T02:15:38.381Z,21.49
2019-05-12T02:18:11.274Z,21.33
2019-05-12T02:20:44.816Z,21.27
2019-05-12T02:23:18.139Z,21.26
2019-05-12T02:25:51.509Z,21.24
2019-05-12T02:28:24.858Z,21.20
2019-05-12T02:30:59.105Z,21.17
2019-05-12T02:33:35.603Z,21.15
2019-05-12T02:36:09.022Z,21.13
2019-05-12T02:38:45.083Z,21.13
2019-05-12T02:41:17.360Z,21.11
2019-05-12T02:43:50.687Z,21.07
2019-05-12T02:46:25.503Z,21.06
2019-05-12T02:48:59.319Z,21.03
2019-05-12T02:51:35.155Z,21.01
2019-05-12T02:54:07.678Z,21.10
2019-05-12T02:56:40.989Z,21.01
2019-05-12T02:59:16.244Z,21.05
2019-05-12T03:01:49.550Z,20.97
2019-05-12T03:04:24.980Z,21.09
2019-05-12T03:07:02.312Z,21.00
2019-05-12T03:09:35.328Z,21.09
2019-05-12T03:12:08.814Z,20.99
2019-05-12T03:14:44.793Z,20.96
2019-05-12T03:17:17.156Z,20.94
2019-05-12T03:19:50.488Z,20.93
2019-05-12T03:22:25.233Z,20.92
2019-05-12T03:25:11.324Z,20.90
2019-05-12T03:27:35.048Z,20.89
2019-05-12T03:30:11.828Z,21.02
2019-05-12T03:32:47.252Z,20.92
2019-05-12T03:35:20.307Z,21.14
2019-05-12T03:37:54.786Z,21.08
2019-05-12T03:40:28.167Z,21.14
2019-05-12T03:43:01.465Z,21.23
2019-05-12T03:45:36.154Z,21.72
2019-05-12T03:48:10.725Z,21.64
2019-05-12T03:50:46.017Z,22.14
2019-05-12T03:53:19.325Z,22.00
2019-05-12T03:55:55.293Z,22.03
2019-05-12T03:58:27.675Z,22.11
2019-05-12T04:01:04.371Z,22.22
2019-05-12T04:03:36.013Z,22.51
2019-05-12T04:06:09.347Z,22.57
2019-05-12T04:08:45.658Z,22.80
2019-05-12T04:11:17.674Z,22.90
2019-05-12T04:13:51.032Z,23.25
2019-05-12T04:16:24.895Z,23.28
2019-05-12T04:18:58.336Z,23.58
2019-05-12T04:21:34.697Z,23.59
2019-05-12T04:24:06.987Z,23.98
2019-05-12T04:26:40.256Z,23.94
2019-05-12T04:29:15.520Z,24.29
2019-05-12T04:31:48.600Z,24.21
2019-05-12T04:34:24.861Z,24.55
2019-05-12T04:36:57.000Z,24.39
2019-05-12T04:39:34.153Z,24.67
2019-05-12T04:42:07.034Z,24.50
2019-05-12T04:44:40.346Z,24.85
2019-05-12T04:47:14.584Z,24.61
2019-05-12T04:49:48.183Z,24.91
2019-05-12T04:52:24.645Z,24.65
2019-05-12T04:54:56.537Z,24.56
2019-05-12T04:57:29.908Z,24.52
2019-05-12T05:00:07.231Z,24.50
2019-05-12T05:02:45.243Z,24.49
2019-05-12T05:05:17.269Z,24.45
2019-05-12T05:07:50.639Z,24.43
2019-05-12T05:10:24.967Z,24.41
2019-05-12T05:12:59.525Z,24.45
2019-05-12T05:15:34.739Z,24.40
2019-05-12T05:18:07.866Z,24.37
2019-05-12T05:20:43.664Z,24.32
2019-05-12T05:23:16.249Z,24.43
2019-05-12T05:25:49.563Z,24.28
2019-05-12T05:28:23.668Z,24.26
2019-05-12T05:30:57.089Z,24.24
2019-05-12T05:33:30.422Z,24.39
2019-05-12T05:36:03.710Z,24.26
2019-05-12T05:38:37.061Z,24.19
2019-05-12T05:41:10.690Z,24.19
2019-05-12T05:43:48.620Z,24.38
2019-05-12T05:46:19.263Z,24.21
2019-05-12T05:48:54.222Z,24.36
2019-05-12T05:51:28.140Z,24.18
2019-05-12T05:54:04.037Z,24.13
2019-05-12T05:56:42.720Z,24.10
2019-05-12T05:59:14.955Z,24.33
2019-05-12T06:01:51.913Z,24.20
2019-05-12T06:04:23.775Z,24.46
2019-05-12T06:06:57.422Z,24.27
2019-05-12T06:09:30.738Z,24.51
2019-05-12T06:12:09.656Z,24.31
2019-05-12T06:14:40.931Z,24.24
2019-05-12T06:17:14.659Z,24.20
2019-05-12T06:19:48.043Z,24.52
2019-05-12T06:22:23.380Z,24.36
2019-05-12T06:24:58.885Z,24.66
2019-05-12T06:27:33.639Z,24.41
2019-05-12T06:30:08.666Z,24.34
2019-05-12T06:32:50.205Z,24.26
2019-05-12T06:35:17.009Z,24.22
2019-05-12T06:38:00.103Z,24.19
2019-05-12T06:40:25.357Z,24.17
2019-05-12T06:42:58.635Z,24.11
2019-05-12T06:45:36.534Z,24.13
2019-05-12T06:48:07.603Z,24.13
2019-05-12T06:50:43.593Z,24.12
2019-05-12T06:53:20.256Z,24.11
2019-05-12T06:55:53.875Z,24.05
2019-05-12T06:58:31.371Z,24.08
2019-05-12T07:01:09.834Z,24.14
2019-05-12T07:03:37.418Z,24.10
2019-05-12T07:06:17.943Z,24.02
2019-05-12T07:08:46.083Z,24.09
2019-05-12T07:11:19.418Z,24.05
2019-05-12T07:14:02.123Z,24.18
2019-05-12T07:16:30.289Z,24.18
2019-05-12T07:19:07.833Z,24.09
2019-05-12T07:21:38.341Z,24.09
2019-05-12T07:24:11.756Z,24.26
2019-05-12T07:26:47.926Z,24.16
2019-05-12T07:29:20.258Z,24.29
2019-05-12T07:31:53.816Z,24.23
2019-05-12T07:34:28.342Z,24.46
2019-05-12T07:37:04.226Z,24.33
2019-05-12T07:39:44.852Z,24.36
2019-05-12T07:42:13.388Z,24.35
2019-05-12T07:44:47.006Z,24.34
2019-05-12T07:47:27.338Z,24.40
2019-05-12T07:49:56.734Z,24.46
2019-05-12T07:52:30.039Z,24.49
2019-05-12T07:55:05.040Z,24.78
2019-05-12T07:57:52.069Z,24.65
2019-05-12T08:00:21.214Z,24.65
2019-05-12T08:02:48.456Z,24.65
2019-05-12T08:05:23.903Z,25.02
2019-05-12T08:08:00.629Z,24.84
2019-05-12T08:10:34.021Z,24.70
2019-05-12T08:13:07.056Z,24.63
2019-05-12T08:15:45.730Z,24.58
2019-05-12T08:18:15.437Z,24.20
2019-05-12T08:20:48.761Z,24.46
2019-05-12T08:23:23.475Z,24.44
2019-05-12T08:25:57.005Z,24.41
2019-05-12T08:28:35.874Z,24.42
2019-05-12T08:31:05.348Z,24.38
2019-05-12T08:33:38.655Z,24.36
2019-05-12T08:36:16.063Z,24.31
2019-05-12T08:38:47.027Z,24.27
2019-05-12T08:41:20.343Z,24.20
2019-05-12T08:43:58.229Z,24.18
2019-05-12T08:46:28.735Z,24.17
2019-05-12T08:49:03.010Z,24.15
2019-05-12T08:51:37.079Z,24.18
2019-05-12T08:54:10.355Z,24.19
2019-05-12T08:56:43.732Z,24.12
2019-05-12T08:59:18.454Z,24.09
2019-05-12T09:01:54.082Z,24.36
2019-05-12T09:04:27.068Z,24.21
2019-05-12T09:07:00.404Z,24.31
2019-05-12T09:09:33.797Z,24.34
2019-05-12T09:12:07.152Z,24.64
2019-05-12T09:14:46.313Z,24.55
2019-05-12T09:17:16.807Z,24.53
2019-05-12T09:19:55.026Z,24.53
2019-05-12T09:22:25.151Z,24.91
2019-05-12T09:25:03.553Z,24.76
2019-05-12T09:27:39.476Z,24.57
2019-05-12T09:30:09.962Z,24.54
2019-05-12T09:32:48.211Z,24.51
2019-05-12T09:35:18.447Z,24.62
2019-05-12T09:37:53.535Z,24.58
2019-05-12T09:40:27.066Z,24.51
2019-05-12T09:43:06.256Z,24.37
2019-05-12T09:45:40.156Z,24.29
2019-05-12T09:48:10.584Z,24.19
2019-05-12T09:50:46.340Z,24.05
2019-05-12T09:53:19.086Z,23.93
2019-05-12T09:55:53.951Z,23.85
2019-05-12T09:58:27.978Z,23.79
2019-05-12T10:01:03.627Z,23.79
2019-05-12T10:03:40.037Z,23.70
2019-05-12T10:06:18.001Z,23.63
2019-05-12T10:08:47.222Z,23.57
2019-05-12T10:11:20.977Z,23.63
2019-05-12T10:13:54.479Z,23.46
2019-05-12T10:16:27.815Z,23.66
2019-05-12T10:19:03.760Z,23.47
2019-05-12T10:21:36.210Z,23.53
2019-05-12T10:24:10.479Z,23.37
2019-05-12T10:26:48.906Z,23.59
2019-05-12T10:29:20.832Z,23.37
2019-05-12T10:31:53.809Z,23.25
2019-05-12T10:34:29.376Z,23.16
2019-05-12T10:37:04.132Z,23.10
2019-05-12T10:39:37.539Z,23.03
2019-05-12T10:42:10.889Z,22.98
2019-05-12T10:44:44.200Z,22.95
2019-05-12T10:47:17.552Z,23.01
2019-05-12T10:49:50.905Z,23.06
2019-05-12T10:52:24.464Z,23.31
2019-05-12T10:54:57.941Z,23.23
2019-05-12T10:57:33.270Z,23.46
2019-05-12T11:00:08.083Z,23.27
2019-05-12T11:02:41.414Z,23.17
2019-05-12T11:05:21.128Z,23.16
2019-05-12T11:07:49.790Z,23.12
2019-05-12T11:10:23.356Z,23.10
2019-05-12T11:12:59.136Z,23.09
2019-05-12T11:15:34.403Z,23.12
2019-05-12T11:20:40.645Z,23.33
2019-05-12T11:23:14.360Z,23.40
2019-05-12T11:25:47.828Z,23.42
2019-05-12T11:28:21.178Z,23.84
2019-05-12T11:30:54.864Z,23.68
2019-05-12T11:33:28.190Z,23.61
2019-05-12T11:36:01.656Z,23.64
2019-05-12T11:38:35.055Z,24.06
2019-05-12T11:41:10.099Z,23.81
2019-05-12T11:43:43.901Z,24.08
2019-05-12T11:46:17.422Z,23.85
2019-05-12T11:48:50.776Z,23.79
2019-05-12T11:51:26.948Z,23.65
2019-05-12T11:54:03.642Z,24.06
2019-05-12T11:56:34.425Z,23.85
2019-05-12T11:59:08.516Z,23.79
2019-05-12T12:01:47.486Z,23.78
2019-05-12T12:04:16.918Z,23.76
2019-05-12T12:06:51.344Z,23.71
2019-05-12T12:09:24.633Z,23.71
2019-05-12T12:12:03.201Z,23.73
2019-05-12T12:14:34.488Z,24.14
2019-05-12T12:17:08.213Z,23.76
2019-05-12T12:19:46.400Z,23.85
2019-05-12T12:22:20.324Z,23.74
2019-05-12T12:24:53.767Z,23.75
2019-05-12T12:27:26.656Z,23.89
2019-05-12T12:30:13.691Z,23.81
2019-05-12T12:32:34.999Z,23.81
2019-05-12T12:35:11.885Z,23.88
2019-05-12T12:37:44.951Z,23.76
2019-05-12T12:40:18.337Z,23.67
2019-05-12T12:42:53.710Z,23.60
2019-05-12T12:45:30.298Z,23.58
2019-05-12T12:48:03.857Z,23.88
2019-05-12T12:50:37.315Z,23.77
2019-05-12T12:53:10.858Z,23.88
2019-05-12T12:55:45.210Z,23.82
2019-05-12T12:58:21.129Z,23.83
2019-05-12T13:00:57.047Z,23.87
2019-05-12T13:03:30.194Z,24.08
2019-05-12T13:06:04.672Z,24.02
2019-05-12T13:08:38.281Z,24.38
2019-05-12T13:11:11.582Z,24.22
2019-05-12T13:13:46.083Z,24.20
2019-05-12T13:16:19.380Z,24.22
2019-05-12T13:18:53.828Z,24.23
2019-05-12T13:21:27.354Z,24.28
2019-05-12T13:24:00.696Z,24.61
2019-05-12T13:26:34.022Z,24.52
2019-05-12T13:29:07.373Z,25.00
2019-05-12T13:31:41.123Z,24.88
2019-05-12T13:34:15.703Z,25.18
2019-05-12T13:36:49.016Z,25.08
2019-05-12T13:39:24.215Z,25.57
2019-05-12T13:42:00.182Z,25.48
2019-05-12T13:44:38.707Z,25.65
2019-05-12T13:47:07.909Z,25.86
2019-05-12T13:49:45.370Z,25.91
2019-05-12T13:52:20.375Z,25.87
2019-05-12T13:54:51.450Z,26.06
2019-05-12T13:57:24.771Z,25.80
2019-05-12T14:00:08.527Z,25.60
2019-05-12T14:02:34.742Z,25.45
2019-05-12T14:05:11.446Z,25.31
2019-05-12T14:07:43.824Z,25.26
2019-05-12T14:10:17.259Z,25.18
2019-05-12T14:12:50.579Z,25.08
2019-05-12T14:15:24.846Z,25.38
2019-05-12T14:17:58.648Z,25.13
2019-05-12T14:20:34.456Z,25.02
2019-05-12T14:23:07.032Z,24.95
2019-05-12T14:25:40.389Z,24.90
2019-05-12T14:28:16.742Z,24.85
2019-05-12T14:30:53.833Z,25.21
2019-05-12T14:33:29.850Z,24.94
2019-05-12T14:36:00.519Z,24.84
2019-05-12T14:38:33.917Z,24.74
2019-05-12T14:41:10.362Z,25.02
2019-05-12T14:43:47.058Z,24.75
2019-05-12T14:46:17.311Z,24.85
2019-05-12T14:48:50.755Z,24.63
2019-05-12T14:51:25.114Z,24.55
2019-05-12T14:53:58.470Z,24.47
2019-05-12T14:56:33.766Z,24.41
2019-05-12T14:59:08.418Z,24.36
2019-05-12T15:01:56.621Z,24.60
2019-05-12T15:04:19.250Z,24.38
2019-05-12T15:06:53.362Z,24.48
2019-05-12T15:09:26.799Z,24.33
2019-05-12T15:12:00.126Z,24.25
2019-05-12T15:14:37.814Z,24.19
2019-05-12T15:17:13.885Z,24.14
2019-05-12T15:19:44.572Z,24.08
2019-05-12T15:22:17.913Z,24.37
2019-05-12T15:24:55.170Z,24.19
2019-05-12T15:27:41.283Z,24.27
2019-05-12T15:30:04.026Z,24.14
2019-05-12T15:32:36.629Z,24.08
2019-05-12T15:35:09.934Z,24.04
2019-05-12T15:37:43.821Z,23.99
2019-05-12T15:40:17.148Z,23.97
2019-05-12T15:42:54.940Z,24.19
2019-05-12T15:45:25.509Z,23.99
2019-05-12T15:47:58.887Z,23.82
2019-05-12T15:50:34.233Z,23.79
2019-05-12T15:53:07.303Z,23.91
2019-05-12T15:55:43.463Z,23.70
2019-05-12T15:58:17.023Z,23.63
2019-05-12T16:00:50.411Z,23.56
2019-05-12T16:03:26.323Z,23.78
2019-05-12T16:06:01.261Z,23.70
2019-05-12T16:08:33.956Z,23.72
2019-05-12T16:11:07.300Z,23.75
2019-05-12T16:13:44.934Z,23.98
2019-05-12T16:16:15.762Z,23.91
2019-05-12T16:18:50.746Z,23.89
2019-05-12T16:21:24.193Z,23.87
2019-05-12T16:24:04.972Z,23.95
2019-05-12T16:26:33.473Z,23.95
2019-05-12T16:29:07.396Z,24.01
2019-05-12T16:31:47.877Z,24.02
2019-05-12T16:34:15.783Z,24.20
2019-05-12T16:36:52.072Z,24.08
2019-05-12T16:39:24.154Z,24.05
2019-05-12T16:42:00.075Z,24.03
2019-05-12T16:44:34.813Z,24.00
2019-05-12T16:47:07.820Z,23.88
2019-05-12T16:49:41.440Z,23.85
2019-05-12T16:52:14.831Z,23.88
2019-05-12T16:54:48.180Z,23.93
2019-05-12T16:57:21.545Z,23.91
2019-05-12T17:00:02.229Z,23.91
2019-05-12T17:02:39.433Z,23.95
2019-05-12T17:05:14.594Z,24.05
2019-05-12T17:07:40.870Z,24.07
2019-05-12T17:10:16.394Z,24.13
2019-05-12T17:12:49.218Z,24.14
2019-05-12T17:15:23.547Z,24.30
2019-05-12T17:18:01.502Z,24.23
2019-05-12T17:20:33.619Z,24.26
2019-05-12T17:23:07.038Z,24.27
2019-05-12T17:25:40.352Z,24.38
2019-05-12T17:28:13.695Z,24.30
2019-05-12T17:30:47.007Z,24.30
2019-05-12T17:33:22.696Z,24.61
2019-05-12T17:35:55.375Z,24.47
2019-05-12T17:38:30.226Z,24.46
2019-05-12T17:41:03.933Z,24.42
2019-05-12T17:43:45.027Z,24.68
2019-05-12T17:46:17.805Z,24.51
2019-05-12T17:48:47.376Z,24.41
2019-05-12T17:51:26.764Z,24.37
2019-05-12T17:53:57.993Z,24.48
2019-05-12T17:56:34.222Z,24.28
2019-05-12T17:59:06.259Z,24.16
2019-05-12T18:01:39.551Z,24.07
2019-05-12T18:04:13.964Z,24.01
2019-05-12T18:06:47.512Z,23.94
2019-05-12T18:09:20.839Z,23.86
2019-05-12T18:11:56.131Z,23.82
2019-05-12T18:14:29.165Z,23.75
2019-05-12T18:17:08.515Z,23.74
2019-05-12T18:19:37.508Z,23.68
2019-05-12T18:22:10.839Z,23.65
2019-05-12T18:24:49.426Z,23.66
2019-05-12T18:27:20.275Z,23.64
2019-05-12T18:29:53.830Z,23.88
2019-05-12T18:32:27.189Z,23.72
2019-05-12T18:35:00.353Z,23.70
2019-05-12T18:37:34.417Z,23.69
2019-05-12T18:40:07.797Z,23.95
2019-05-12T18:42:41.124Z,23.77
2019-05-12T18:45:17.847Z,23.70
2019-05-12T18:47:49.790Z,23.67
2019-05-12T18:50:29.213Z,23.63
2019-05-12T18:52:58.767Z,23.59
2019-05-12T18:55:35.780Z,23.56
2019-05-12T18:58:09.512Z,23.57
2019-05-12T19:00:43.636Z,23.55
2019-05-12T19:03:20.441Z,23.56
2019-05-12T19:05:54.144Z,23.53
2019-05-12T19:08:27.187Z,23.50
2019-05-12T19:11:14.953Z,23.62
2019-05-12T19:13:35.585Z,23.49
2019-05-12T19:16:11.265Z,23.51
2019-05-12T19:18:44.120Z,23.49
2019-05-12T19:21:20.228Z,23.70
2019-05-12T19:23:54.832Z,23.59
2019-05-12T19:26:28.194Z,23.48
2019-05-12T19:29:03.816Z,23.52
2019-05-12T19:31:36.860Z,23.66
2019-05-12T19:34:19.857Z,23.54
2019-05-12T19:36:49.362Z,23.49
2019-05-12T19:39:25.188Z,23.47
2019-05-12T19:41:56.901Z,23.46
2019-05-12T19:44:30.819Z,23.42
2019-05-12T19:47:04.316Z,23.38
2019-05-12T19:49:48.001Z,23.36
2019-05-12T19:52:14.253Z,23.34
2019-05-12T19:54:47.637Z,23.27
2019-05-12T19:57:25.513Z,23.29
2019-05-12T19:59:56.362Z,23.24
2019-05-12T20:02:29.699Z,23.25
2019-05-12T20:05:04.895Z,23.27
2019-05-12T20:07:38.307Z,23.28
2019-05-12T20:10:16.305Z,23.25
2019-05-12T20:12:48.698Z,23.22
2019-05-12T20:15:24.150Z,23.21
2019-05-12T20:17:57.676Z,23.16
2019-05-12T20:20:36.761Z,23.15
2019-05-12T20:23:06.105Z,23.16
2019-05-12T20:25:39.417Z,23.15
2019-05-12T20:28:14.446Z,23.23
2019-05-12T20:30:54.376Z,23.21
2019-05-12T20:33:24.034Z,23.21
2019-05-12T20:35:57.588Z,23.66
2019-05-12T20:38:34.073Z,23.40
2019-05-12T20:41:10.973Z,23.29
2019-05-12T20:43:42.025Z,23.26
2019-05-12T20:46:21.715Z,23.28
2019-05-12T20:48:53.791Z,23.25
2019-05-12T20:51:27.249Z,23.36
2019-05-12T20:54:05.633Z,23.25
2019-05-12T20:56:35.739Z,23.15
2019-05-12T20:59:13.764Z,23.11
2019-05-12T21:01:44.362Z,23.02
2019-05-12T21:04:22.172Z,23.08
2019-05-12T21:06:54.258Z,23.45
2019-05-12T21:09:27.772Z,23.16
2019-05-12T21:12:01.094Z,23.35
2019-05-12T21:14:34.449Z,23.24
2019-05-12T21:17:09.401Z,23.05
2019-05-12T21:19:55.801Z,22.92
2019-05-12T21:22:17.859Z,23.15
2019-05-12T21:24:53.378Z,22.98
2019-05-12T21:27:26.219Z,22.86
2019-05-12T21:30:00.687Z,22.86
2019-05-12T21:32:34.581Z,22.79
2019-05-12T21:35:18.150Z,22.72
2019-05-12T21:37:46.111Z,22.70
2019-05-12T21:40:22.361Z,22.67
2019-05-12T21:42:53.780Z,22.61
2019-05-12T21:45:30.854Z,22.57
2019-05-12T21:48:03.641Z,22.55
2019-05-12T21:50:39.241Z,22.51
2019-05-12T21:53:17.462Z,22.47
2019-05-12T21:55:47.580Z,22.44
2019-05-12T21:58:20.891Z,22.45
2019-05-12T22:01:04.109Z,22.42
2019-05-12T22:03:33.453Z,22.41
2019-05-12T22:06:19.115Z,22.38
2019-05-12T22:08:44.238Z,22.39
2019-05-12T22:11:17.647Z,22.38
2019-05-12T22:13:58.231Z,22.34
2019-05-12T22:16:29.563Z,22.35
2019-05-12T22:19:01.643Z,22.34
2019-05-12T22:21:44.440Z,22.34
2019-05-12T22:24:11.108Z,22.33
2019-05-12T22:26:46.655Z,22.31
2019-05-12T22:29:21.370Z,22.28
2019-05-12T22:31:54.466Z,22.29
2019-05-12T22:34:37.177Z,22.25
2019-05-12T22:37:03.909Z,22.29
2019-05-12T22:39:38.497Z,22.24
2019-05-12T22:42:19.763Z,22.26
2019-05-12T22:44:46.807Z,22.28
2019-05-12T22:47:20.124Z,22.22
2019-05-12T22:49:57.011Z,21.79
2019-05-12T22:52:28.563Z,22.21
2019-05-12T22:55:03.618Z,22.22
2019-05-12T22:57:40.073Z,22.22
2019-05-12T23:00:19.344Z,22.23
2019-05-12T23:02:50.056Z,22.16
2019-05-12T23:05:24.164Z,22.14
2019-05-12T23:08:00.143Z,22.13
2019-05-12T23:10:33.830Z,22.14
2019-05-12T23:13:08.055Z,22.15
2019-05-12T23:15:47.589Z,22.14
2019-05-12T23:18:19.659Z,22.11
2019-05-12T23:20:54.149Z,22.12
2019-05-12T23:23:27.204Z,22.14
2019-05-12T23:26:01.920Z,22.09
2019-05-12T23:28:40.428Z,22.08
2019-05-12T23:31:10.638Z,22.10
2019-05-12T23:33:44.224Z,22.12
2019-05-12T23:36:19.631Z,22.11
2019-05-12T23:39:00.474Z,22.09
2019-05-12T23:41:27.576Z,22.10
2019-05-12T23:44:01.058Z,22.07
2019-05-12T23:46:34.433Z,22.08
2019-05-12T23:49:07.807Z,22.06
2019-05-12T23:51:41.100Z,22.07
2019-05-12T23:54:14.541Z,22.04
2019-05-12T23:56:47.844Z,22.06
2019-05-12T23:59:21.181Z,22.05
